sensor_id;sensor_type;location;lat;lon;timestamp;temperature;humidity
25652;DHT22;13508;50.734;4.232;2023-12-20T00:00:08;6.20;99.90
25652;DHT22;13508;50.734;4.232;2023-12-20T00:03:12;6.20;99.90
25652;DHT22;13508;50.734;4.232;2023-12-20T00:06:15;6.20;99.90
25652;DHT22;13508;50.734;4.232;2023-12-20T00:09:19;6.20;99.90
25652;DHT22;13508;50.734;4.232;2023-12-20T00:12:22;6.20;99.90
25652;DHT22;13508;50.734;4.232;2023-12-20T00:15:28;6.20;99.90
25652;DHT22;13508;50.734;4.232;2023-12-20T00:18:31;6.20;99.90
25652;DHT22;13508;50.734;4.232;2023-12-20T00:21:35;6.20;99.90
25652;DHT22;13508;50.734;4.232;2023-12-20T00:24:38;6.20;99.90
25652;DHT22;13508;50.734;4.232;2023-12-20T00:27:42;6.30;99.90
25652;DHT22;13508;50.734;4.232;2023-12-20T00:30:45;6.40;99.90
25652;DHT22;13508;50.734;4.232;2023-12-20T00:33:51;6.30;99.90
25652;DHT22;13508;50.734;4.232;2023-12-20T00:36:54;6.30;99.90
25652;DHT22;13508;50.734;4.232;2023-12-20T00:40:00;6.30;99.90
25652;DHT22;13508;50.734;4.232;2023-12-20T00:43:04;6.30;99.90
25652;DHT22;13508;50.734;4.232;2023-12-20T00:46:08;6.30;99.90
25652;DHT22;13508;50.734;4.232;2023-12-20T00:49:11;6.30;99.90
25652;DHT22;13508;50.734;4.232;2023-12-20T00:52:14;6.30;99.90
25652;DHT22;13508;50.734;4.232;2023-12-20T00:55:20;6.50;99.90
25652;DHT22;13508;50.734;4.232;2023-12-20T00:58:23;6.40;99.90
25652;DHT22;13508;50.734;4.232;2023-12-20T01:01:29;6.40;99.90
25652;DHT22;13508;50.734;4.232;2023-12-20T01:04:33;6.30;99.90
25652;DHT22;13508;50.734;4.232;2023-12-20T01:07:36;6.30;99.90
25652;DHT22;13508;50.734;4.232;2023-12-20T01:10:40;6.20;99.90
25652;DHT22;13508;50.734;4.232;2023-12-20T01:13:43;6.10;99.90
25652;DHT22;13508;50.734;4.232;2023-12-20T01:16:47;6.00;99.90
25652;DHT22;13508;50.734;4.232;2023-12-20T01:19:50;6.00;99.90
25652;DHT22;13508;50.734;4.232;2023-12-20T01:22:54;6.00;99.90
25652;DHT22;13508;50.734;4.232;2023-12-20T01:26:00;5.90;99.90
25652;DHT22;13508;50.734;4.232;2023-12-20T01:29:03;6.00;99.90
25652;DHT22;13508;50.734;4.232;2023-12-20T01:32:07;6.00;99.90
25652;DHT22;13508;50.734;4.232;2023-12-20T01:35:10;6.00;99.90
25652;DHT22;13508;50.734;4.232;2023-12-20T01:38:15;5.90;99.90
25652;DHT22;13508;50.734;4.232;2023-12-20T01:41:21;5.90;99.90
25652;DHT22;13508;50.734;4.232;2023-12-20T01:44:24;5.90;99.90
25652;DHT22;13508;50.734;4.232;2023-12-20T01:47:28;5.90;99.90
25652;DHT22;13508;50.734;4.232;2023-12-20T01:50:32;5.80;99.90
25652;DHT22;13508;50.734;4.232;2023-12-20T01:53:41;5.80;99.90
25652;DHT22;13508;50.734;4.232;2023-12-20T01:56:45;5.70;99.90
25652;DHT22;13508;50.734;4.232;2023-12-20T01:59:49;5.70;99.90
25652;DHT22;13508;50.734;4.232;2023-12-20T02:02:56;5.80;99.90
25652;DHT22;13508;50.734;4.232;2023-12-20T02:06:04;5.70;99.90
25652;DHT22;13508;50.734;4.232;2023-12-20T02:09:09;5.70;99.90
25652;DHT22;13508;50.734;4.232;2023-12-20T02:12:13;5.70;99.90
25652;DHT22;13508;50.734;4.232;2023-12-20T02:15:16;5.80;99.90
25652;DHT22;13508;50.734;4.232;2023-12-20T02:18:20;5.90;99.90
25652;DHT22;13508;50.734;4.232;2023-12-20T02:21:32;5.90;99.90
25652;DHT22;13508;50.734;4.232;2023-12-20T02:24:36;5.80;99.90
25652;DHT22;13508;50.734;4.232;2023-12-20T02:27:39;5.90;99.90
25652;DHT22;13508;50.734;4.232;2023-12-20T02:30:45;5.90;99.90
25652;DHT22;13508;50.734;4.232;2023-12-20T02:33:49;6.00;99.90
25652;DHT22;13508;50.734;4.232;2023-12-20T02:36:53;6.10;99.90
25652;DHT22;13508;50.734;4.232;2023-12-20T02:39:55;6.00;99.90
25652;DHT22;13508;50.734;4.232;2023-12-20T02:42:59;6.00;99.90
25652;DHT22;13508;50.734;4.232;2023-12-20T02:46:02;5.90;99.90
25652;DHT22;13508;50.734;4.232;2023-12-20T02:49:08;5.80;99.90
25652;DHT22;13508;50.734;4.232;2023-12-20T02:52:11;5.80;99.90
25652;DHT22;13508;50.734;4.232;2023-12-20T02:55:15;5.80;99.90
25652;DHT22;13508;50.734;4.232;2023-12-20T02:58:19;5.70;99.90
25652;DHT22;13508;50.734;4.232;2023-12-20T03:01:22;5.80;99.90
25652;DHT22;13508;50.734;4.232;2023-12-20T03:04:25;5.80;99.90
25652;DHT22;13508;50.734;4.232;2023-12-20T03:07:29;5.80;99.90
25652;DHT22;13508;50.734;4.232;2023-12-20T03:10:32;5.90;99.90
25652;DHT22;13508;50.734;4.232;2023-12-20T03:13:35;6.00;99.90
25652;DHT22;13508;50.734;4.232;2023-12-20T03:16:38;6.10;99.90
25652;DHT22;13508;50.734;4.232;2023-12-20T03:19:42;6.10;99.90
25652;DHT22;13508;50.734;4.232;2023-12-20T03:22:45;6.10;99.90
25652;DHT22;13508;50.734;4.232;2023-12-20T03:25:49;6.20;99.90
25652;DHT22;13508;50.734;4.232;2023-12-20T03:28:54;6.30;99.90
25652;DHT22;13508;50.734;4.232;2023-12-20T03:31:57;6.40;99.90
25652;DHT22;13508;50.734;4.232;2023-12-20T03:35:01;6.30;99.90
25652;DHT22;13508;50.734;4.232;2023-12-20T03:38:04;6.20;99.90
25652;DHT22;13508;50.734;4.232;2023-12-20T03:41:07;6.20;99.90
25652;DHT22;13508;50.734;4.232;2023-12-20T03:44:10;6.30;99.90
25652;DHT22;13508;50.734;4.232;2023-12-20T03:47:13;6.40;99.90
25652;DHT22;13508;50.734;4.232;2023-12-20T03:50:17;6.30;99.90
25652;DHT22;13508;50.734;4.232;2023-12-20T03:53:20;6.20;99.90
25652;DHT22;13508;50.734;4.232;2023-12-20T03:56:24;6.10;99.90
25652;DHT22;13508;50.734;4.232;2023-12-20T03:59:30;6.00;99.90
25652;DHT22;13508;50.734;4.232;2023-12-20T04:02:38;6.00;99.90
25652;DHT22;13508;50.734;4.232;2023-12-20T04:05:41;6.10;99.90
25652;DHT22;13508;50.734;4.232;2023-12-20T04:08:45;6.20;99.90
25652;DHT22;13508;50.734;4.232;2023-12-20T04:11:48;6.30;99.90
25652;DHT22;13508;50.734;4.232;2023-12-20T04:14:52;6.20;99.90
25652;DHT22;13508;50.734;4.232;2023-12-20T04:17:55;6.20;99.90
25652;DHT22;13508;50.734;4.232;2023-12-20T04:20:59;6.30;99.90
25652;DHT22;13508;50.734;4.232;2023-12-20T04:24:02;6.30;99.90
25652;DHT22;13508;50.734;4.232;2023-12-20T04:27:06;6.20;99.90
25652;DHT22;13508;50.734;4.232;2023-12-20T04:30:09;6.10;99.90
25652;DHT22;13508;50.734;4.232;2023-12-20T04:33:12;6.10;99.90
25652;DHT22;13508;50.734;4.232;2023-12-20T04:36:18;6.20;99.90
25652;DHT22;13508;50.734;4.232;2023-12-20T04:39:21;6.20;99.90
25652;DHT22;13508;50.734;4.232;2023-12-20T04:42:25;6.10;99.90
25652;DHT22;13508;50.734;4.232;2023-12-20T04:45:28;6.10;99.90
25652;DHT22;13508;50.734;4.232;2023-12-20T04:48:31;6.10;99.90
25652;DHT22;13508;50.734;4.232;2023-12-20T04:51:35;6.10;99.90
25652;DHT22;13508;50.734;4.232;2023-12-20T04:54:38;6.10;99.90
25652;DHT22;13508;50.734;4.232;2023-12-20T04:57:44;6.10;99.90
25652;DHT22;13508;50.734;4.232;2023-12-20T05:00:47;5.90;99.90
25652;DHT22;13508;50.734;4.232;2023-12-20T05:03:53;5.80;99.90
25652;DHT22;13508;50.734;4.232;2023-12-20T05:06:56;5.80;99.90
25652;DHT22;13508;50.734;4.232;2023-12-20T05:09:59;5.90;99.90
25652;DHT22;13508;50.734;4.232;2023-12-20T05:13:03;5.80;99.90
25652;DHT22;13508;50.734;4.232;2023-12-20T05:16:07;5.70;99.90
25652;DHT22;13508;50.734;4.232;2023-12-20T05:19:11;5.70;99.90
25652;DHT22;13508;50.734;4.232;2023-12-20T05:22:16;5.70;99.90
25652;DHT22;13508;50.734;4.232;2023-12-20T05:25:20;5.50;99.90
25652;DHT22;13508;50.734;4.232;2023-12-20T05:28:23;5.50;99.90
25652;DHT22;13508;50.734;4.232;2023-12-20T05:31:26;5.40;99.90
25652;DHT22;13508;50.734;4.232;2023-12-20T05:34:31;5.50;99.90
25652;DHT22;13508;50.734;4.232;2023-12-20T05:37:34;5.40;99.90
25652;DHT22;13508;50.734;4.232;2023-12-20T05:40:38;5.40;99.90
25652;DHT22;13508;50.734;4.232;2023-12-20T05:43:41;5.50;99.90
25652;DHT22;13508;50.734;4.232;2023-12-20T05:46:45;5.50;99.90
25652;DHT22;13508;50.734;4.232;2023-12-20T05:49:48;5.40;99.90
25652;DHT22;13508;50.734;4.232;2023-12-20T05:52:53;5.30;99.90
25652;DHT22;13508;50.734;4.232;2023-12-20T05:55:56;5.20;99.90
25652;DHT22;13508;50.734;4.232;2023-12-20T05:59:00;5.10;99.90
25652;DHT22;13508;50.734;4.232;2023-12-20T06:02:03;5.10;99.90
25652;DHT22;13508;50.734;4.232;2023-12-20T06:05:07;5.10;99.90
25652;DHT22;13508;50.734;4.232;2023-12-20T06:08:11;5.10;99.90
25652;DHT22;13508;50.734;4.232;2023-12-20T06:11:14;5.00;99.90
25652;DHT22;13508;50.734;4.232;2023-12-20T06:14:18;5.00;99.90
25652;DHT22;13508;50.734;4.232;2023-12-20T06:17:21;5.10;99.90
25652;DHT22;13508;50.734;4.232;2023-12-20T06:20:24;5.00;99.90
25652;DHT22;13508;50.734;4.232;2023-12-20T06:23:27;5.10;99.90
25652;DHT22;13508;50.734;4.232;2023-12-20T06:26:35;5.10;99.90
25652;DHT22;13508;50.734;4.232;2023-12-20T06:29:39;5.20;99.90
25652;DHT22;13508;50.734;4.232;2023-12-20T06:32:43;5.20;99.90
25652;DHT22;13508;50.734;4.232;2023-12-20T06:35:47;5.30;99.90
25652;DHT22;13508;50.734;4.232;2023-12-20T06:38:51;5.30;99.90
25652;DHT22;13508;50.734;4.232;2023-12-20T06:41:54;5.40;99.90
25652;DHT22;13508;50.734;4.232;2023-12-20T06:44:57;5.40;99.90
25652;DHT22;13508;50.734;4.232;2023-12-20T06:48:01;5.40;99.90
25652;DHT22;13508;50.734;4.232;2023-12-20T06:51:06;5.40;99.90
25652;DHT22;13508;50.734;4.232;2023-12-20T06:54:09;5.30;99.90
25652;DHT22;13508;50.734;4.232;2023-12-20T06:57:13;5.20;99.90
25652;DHT22;13508;50.734;4.232;2023-12-20T07:00:16;5.20;99.90
25652;DHT22;13508;50.734;4.232;2023-12-20T07:03:21;5.20;99.90
25652;DHT22;13508;50.734;4.232;2023-12-20T07:06:24;5.20;99.90
25652;DHT22;13508;50.734;4.232;2023-12-20T07:09:28;5.20;99.90
25652;DHT22;13508;50.734;4.232;2023-12-20T07:12:32;5.10;99.90
25652;DHT22;13508;50.734;4.232;2023-12-20T07:15:36;5.10;99.90
25652;DHT22;13508;50.734;4.232;2023-12-20T07:18:40;5.20;99.90
25652;DHT22;13508;50.734;4.232;2023-12-20T07:21:43;5.20;99.90
25652;DHT22;13508;50.734;4.232;2023-12-20T07:24:46;5.10;99.90
25652;DHT22;13508;50.734;4.232;2023-12-20T07:27:50;5.10;99.90
25652;DHT22;13508;50.734;4.232;2023-12-20T07:30:53;5.10;99.90
25652;DHT22;13508;50.734;4.232;2023-12-20T07:33:56;5.10;99.90
25652;DHT22;13508;50.734;4.232;2023-12-20T07:37:00;5.10;99.90
25652;DHT22;13508;50.734;4.232;2023-12-20T07:40:04;5.00;99.90
25652;DHT22;13508;50.734;4.232;2023-12-20T07:43:08;5.00;99.90
25652;DHT22;13508;50.734;4.232;2023-12-20T07:46:11;5.00;99.90
25652;DHT22;13508;50.734;4.232;2023-12-20T07:49:14;5.00;99.90
25652;DHT22;13508;50.734;4.232;2023-12-20T07:52:20;5.10;99.90
25652;DHT22;13508;50.734;4.232;2023-12-20T07:55:26;5.10;99.90
25652;DHT22;13508;50.734;4.232;2023-12-20T07:58:29;5.10;99.90
25652;DHT22;13508;50.734;4.232;2023-12-20T08:01:35;5.10;99.90
25652;DHT22;13508;50.734;4.232;2023-12-20T08:04:38;5.10;99.90
25652;DHT22;13508;50.734;4.232;2023-12-20T08:07:41;5.10;99.90
25652;DHT22;13508;50.734;4.232;2023-12-20T08:10:45;5.10;99.90
25652;DHT22;13508;50.734;4.232;2023-12-20T08:13:48;5.10;99.90
25652;DHT22;13508;50.734;4.232;2023-12-20T08:16:51;5.10;99.90
25652;DHT22;13508;50.734;4.232;2023-12-20T08:19:55;5.10;99.90
25652;DHT22;13508;50.734;4.232;2023-12-20T08:22:59;5.10;99.90
25652;DHT22;13508;50.734;4.232;2023-12-20T08:26:09;5.10;99.90
25652;DHT22;13508;50.734;4.232;2023-12-20T08:29:17;5.20;99.90
25652;DHT22;13508;50.734;4.232;2023-12-20T08:32:21;5.30;99.90
25652;DHT22;13508;50.734;4.232;2023-12-20T08:35:24;5.30;99.90
25652;DHT22;13508;50.734;4.232;2023-12-20T08:38:28;5.30;99.90
25652;DHT22;13508;50.734;4.232;2023-12-20T08:41:31;5.20;99.90
25652;DHT22;13508;50.734;4.232;2023-12-20T08:44:34;5.20;99.90
25652;DHT22;13508;50.734;4.232;2023-12-20T08:47:41;5.20;99.90
25652;DHT22;13508;50.734;4.232;2023-12-20T08:50:45;5.30;99.90
25652;DHT22;13508;50.734;4.232;2023-12-20T08:53:52;5.40;99.90
25652;DHT22;13508;50.734;4.232;2023-12-20T08:57:05;5.40;99.90
25652;DHT22;13508;50.734;4.232;2023-12-20T09:00:13;5.50;99.90
25652;DHT22;13508;50.734;4.232;2023-12-20T09:03:16;5.50;99.90
25652;DHT22;13508;50.734;4.232;2023-12-20T09:06:20;5.50;99.90
25652;DHT22;13508;50.734;4.232;2023-12-20T09:09:23;5.50;99.90
25652;DHT22;13508;50.734;4.232;2023-12-20T09:12:26;5.50;99.90
25652;DHT22;13508;50.734;4.232;2023-12-20T09:15:30;5.50;99.90
25652;DHT22;13508;50.734;4.232;2023-12-20T09:18:34;5.60;99.90
25652;DHT22;13508;50.734;4.232;2023-12-20T09:21:39;5.60;99.90
25652;DHT22;13508;50.734;4.232;2023-12-20T09:24:42;5.70;99.90
25652;DHT22;13508;50.734;4.232;2023-12-20T09:27:46;5.70;99.90
25652;DHT22;13508;50.734;4.232;2023-12-20T09:30:49;5.70;99.90
25652;DHT22;13508;50.734;4.232;2023-12-20T09:33:53;5.70;99.90
25652;DHT22;13508;50.734;4.232;2023-12-20T09:36:56;5.70;99.90
25652;DHT22;13508;50.734;4.232;2023-12-20T09:40:00;5.90;99.90
25652;DHT22;13508;50.734;4.232;2023-12-20T09:43:11;6.10;99.90
25652;DHT22;13508;50.734;4.232;2023-12-20T09:46:17;6.30;99.90
25652;DHT22;13508;50.734;4.232;2023-12-20T09:49:22;6.50;99.90
25652;DHT22;13508;50.734;4.232;2023-12-20T09:52:25;6.50;99.90
25652;DHT22;13508;50.734;4.232;2023-12-20T09:55:30;6.50;99.90
25652;DHT22;13508;50.734;4.232;2023-12-20T09:58:37;6.70;99.90
25652;DHT22;13508;50.734;4.232;2023-12-20T10:01:41;6.90;99.90
25652;DHT22;13508;50.734;4.232;2023-12-20T10:04:50;7.10;99.90
25652;DHT22;13508;50.734;4.232;2023-12-20T10:07:54;7.10;99.90
25652;DHT22;13508;50.734;4.232;2023-12-20T10:10:59;7.10;99.90
25652;DHT22;13508;50.734;4.232;2023-12-20T10:14:07;7.10;99.90
25652;DHT22;13508;50.734;4.232;2023-12-20T10:17:13;7.10;99.90
25652;DHT22;13508;50.734;4.232;2023-12-20T10:20:19;7.00;99.90
25652;DHT22;13508;50.734;4.232;2023-12-20T10:23:22;7.00;99.90
25652;DHT22;13508;50.734;4.232;2023-12-20T10:26:26;7.10;99.90
25652;DHT22;13508;50.734;4.232;2023-12-20T10:29:37;7.20;99.90
25652;DHT22;13508;50.734;4.232;2023-12-20T10:32:40;7.20;99.90
25652;DHT22;13508;50.734;4.232;2023-12-20T10:35:44;7.20;99.90
25652;DHT22;13508;50.734;4.232;2023-12-20T10:38:50;7.20;99.90
25652;DHT22;13508;50.734;4.232;2023-12-20T10:41:53;7.20;99.90
25652;DHT22;13508;50.734;4.232;2023-12-20T10:44:59;7.20;99.90
25652;DHT22;13508;50.734;4.232;2023-12-20T10:48:04;7.20;99.90
25652;DHT22;13508;50.734;4.232;2023-12-20T10:51:10;7.30;99.90
25652;DHT22;13508;50.734;4.232;2023-12-20T10:54:16;7.40;99.90
25652;DHT22;13508;50.734;4.232;2023-12-20T10:57:20;7.40;99.90
25652;DHT22;13508;50.734;4.232;2023-12-20T11:00:24;7.40;99.90
25652;DHT22;13508;50.734;4.232;2023-12-20T11:03:33;7.50;99.90
25652;DHT22;13508;50.734;4.232;2023-12-20T11:06:56;7.60;99.90
25652;DHT22;13508;50.734;4.232;2023-12-20T11:10:16;7.70;99.90
25652;DHT22;13508;50.734;4.232;2023-12-20T11:13:58;7.70;99.90
25652;DHT22;13508;50.734;4.232;2023-12-20T11:17:12;7.60;99.90
25652;DHT22;13508;50.734;4.232;2023-12-20T11:20:23;7.50;99.90
25652;DHT22;13508;50.734;4.232;2023-12-20T11:23:26;7.60;99.90
25652;DHT22;13508;50.734;4.232;2023-12-20T11:26:29;7.60;99.90
25652;DHT22;13508;50.734;4.232;2023-12-20T11:29:36;7.50;99.90
25652;DHT22;13508;50.734;4.232;2023-12-20T11:32:40;7.60;99.90
25652;DHT22;13508;50.734;4.232;2023-12-20T11:35:48;7.80;99.90
25652;DHT22;13508;50.734;4.232;2023-12-20T11:38:56;7.80;99.90
25652;DHT22;13508;50.734;4.232;2023-12-20T11:42:04;7.80;99.90
25652;DHT22;13508;50.734;4.232;2023-12-20T11:45:10;7.80;99.90
25652;DHT22;13508;50.734;4.232;2023-12-20T11:48:15;7.80;99.90
25652;DHT22;13508;50.734;4.232;2023-12-20T11:51:23;7.80;99.90
25652;DHT22;13508;50.734;4.232;2023-12-20T11:54:27;7.80;99.90
25652;DHT22;13508;50.734;4.232;2023-12-20T11:57:32;7.90;99.90
25652;DHT22;13508;50.734;4.232;2023-12-20T12:00:35;8.00;99.90
25652;DHT22;13508;50.734;4.232;2023-12-20T12:03:39;8.00;99.90
25652;DHT22;13508;50.734;4.232;2023-12-20T12:06:43;8.00;99.90
25652;DHT22;13508;50.734;4.232;2023-12-20T12:09:46;8.00;99.90
25652;DHT22;13508;50.734;4.232;2023-12-20T12:12:49;8.10;99.90
25652;DHT22;13508;50.734;4.232;2023-12-20T12:15:53;8.10;99.90
25652;DHT22;13508;50.734;4.232;2023-12-20T12:18:58;8.10;99.90
25652;DHT22;13508;50.734;4.232;2023-12-20T12:25:13;8.20;99.90
25652;DHT22;13508;50.734;4.232;2023-12-20T12:28:17;8.20;99.90
25652;DHT22;13508;50.734;4.232;2023-12-20T12:31:21;8.20;99.90
25652;DHT22;13508;50.734;4.232;2023-12-20T12:34:27;8.30;99.90
25652;DHT22;13508;50.734;4.232;2023-12-20T12:37:33;8.30;99.90
25652;DHT22;13508;50.734;4.232;2023-12-20T12:40:37;8.30;99.90
25652;DHT22;13508;50.734;4.232;2023-12-20T12:43:41;8.30;99.90
25652;DHT22;13508;50.734;4.232;2023-12-20T12:46:47;8.30;99.90
25652;DHT22;13508;50.734;4.232;2023-12-20T12:49:53;8.30;99.90
25652;DHT22;13508;50.734;4.232;2023-12-20T12:52:56;8.30;99.90
25652;DHT22;13508;50.734;4.232;2023-12-20T12:56:00;8.40;99.90
25652;DHT22;13508;50.734;4.232;2023-12-20T12:59:04;8.40;99.90
25652;DHT22;13508;50.734;4.232;2023-12-20T13:02:10;8.40;99.90
25652;DHT22;13508;50.734;4.232;2023-12-20T13:05:14;8.60;99.90
25652;DHT22;13508;50.734;4.232;2023-12-20T13:08:17;8.60;99.90
25652;DHT22;13508;50.734;4.232;2023-12-20T13:11:21;8.70;99.90
25652;DHT22;13508;50.734;4.232;2023-12-20T13:14:25;8.80;99.90
25652;DHT22;13508;50.734;4.232;2023-12-20T13:17:29;8.80;99.90
25652;DHT22;13508;50.734;4.232;2023-12-20T13:20:32;8.90;99.90
25652;DHT22;13508;50.734;4.232;2023-12-20T13:23:39;8.90;99.90
25652;DHT22;13508;50.734;4.232;2023-12-20T13:26:42;8.80;99.90
25652;DHT22;13508;50.734;4.232;2023-12-20T13:29:53;8.70;99.90
25652;DHT22;13508;50.734;4.232;2023-12-20T13:32:59;8.90;99.90
25652;DHT22;13508;50.734;4.232;2023-12-20T13:36:05;8.90;99.90
25652;DHT22;13508;50.734;4.232;2023-12-20T13:39:09;9.00;99.90
25652;DHT22;13508;50.734;4.232;2023-12-20T13:42:14;9.00;99.90
25652;DHT22;13508;50.734;4.232;2023-12-20T13:45:17;9.00;99.90
25652;DHT22;13508;50.734;4.232;2023-12-20T13:48:23;8.90;99.90
25652;DHT22;13508;50.734;4.232;2023-12-20T13:51:27;9.00;99.90
25652;DHT22;13508;50.734;4.232;2023-12-20T13:54:32;9.00;99.90
25652;DHT22;13508;50.734;4.232;2023-12-20T13:57:35;9.00;99.90
25652;DHT22;13508;50.734;4.232;2023-12-20T14:00:40;9.00;99.90
25652;DHT22;13508;50.734;4.232;2023-12-20T14:03:44;9.00;99.90
25652;DHT22;13508;50.734;4.232;2023-12-20T14:06:51;9.10;99.90
25652;DHT22;13508;50.734;4.232;2023-12-20T14:09:54;9.10;99.90
25652;DHT22;13508;50.734;4.232;2023-12-20T14:12:58;9.00;99.90
25652;DHT22;13508;50.734;4.232;2023-12-20T14:16:01;9.00;99.90
25652;DHT22;13508;50.734;4.232;2023-12-20T14:19:06;9.10;99.90
25652;DHT22;13508;50.734;4.232;2023-12-20T14:22:12;9.00;99.90
25652;DHT22;13508;50.734;4.232;2023-12-20T14:25:19;9.00;99.90
25652;DHT22;13508;50.734;4.232;2023-12-20T14:28:26;9.10;99.90
25652;DHT22;13508;50.734;4.232;2023-12-20T14:31:30;9.10;99.90
25652;DHT22;13508;50.734;4.232;2023-12-20T14:34:33;9.10;99.90
25652;DHT22;13508;50.734;4.232;2023-12-20T14:37:37;9.10;99.90
25652;DHT22;13508;50.734;4.232;2023-12-20T14:40:43;9.00;99.90
25652;DHT22;13508;50.734;4.232;2023-12-20T14:43:46;9.10;99.90
25652;DHT22;13508;50.734;4.232;2023-12-20T14:46:50;9.10;99.90
25652;DHT22;13508;50.734;4.232;2023-12-20T14:49:53;9.20;99.90
25652;DHT22;13508;50.734;4.232;2023-12-20T14:52:57;9.20;99.90
25652;DHT22;13508;50.734;4.232;2023-12-20T14:56:00;9.20;99.90
25652;DHT22;13508;50.734;4.232;2023-12-20T14:59:05;9.10;99.90
25652;DHT22;13508;50.734;4.232;2023-12-20T15:02:08;9.20;99.90
25652;DHT22;13508;50.734;4.232;2023-12-20T15:05:12;9.20;99.90
25652;DHT22;13508;50.734;4.232;2023-12-20T15:08:15;9.20;99.90
25652;DHT22;13508;50.734;4.232;2023-12-20T15:11:19;9.20;99.90
25652;DHT22;13508;50.734;4.232;2023-12-20T15:14:25;9.20;99.90
25652;DHT22;13508;50.734;4.232;2023-12-20T15:17:28;9.20;99.90
25652;DHT22;13508;50.734;4.232;2023-12-20T15:20:34;9.20;99.90
25652;DHT22;13508;50.734;4.232;2023-12-20T15:23:39;9.20;99.90
25652;DHT22;13508;50.734;4.232;2023-12-20T15:26:54;9.10;99.90
25652;DHT22;13508;50.734;4.232;2023-12-20T15:29:59;9.20;99.90
25652;DHT22;13508;50.734;4.232;2023-12-20T15:33:02;9.20;99.90
25652;DHT22;13508;50.734;4.232;2023-12-20T15:36:07;9.10;99.90
25652;DHT22;13508;50.734;4.232;2023-12-20T15:39:15;9.10;99.90
25652;DHT22;13508;50.734;4.232;2023-12-20T15:42:19;9.10;99.90
25652;DHT22;13508;50.734;4.232;2023-12-20T15:45:24;9.00;99.90
25652;DHT22;13508;50.734;4.232;2023-12-20T15:48:27;9.10;99.90
25652;DHT22;13508;50.734;4.232;2023-12-20T15:51:32;9.20;99.90
25652;DHT22;13508;50.734;4.232;2023-12-20T15:54:38;9.20;99.90
25652;DHT22;13508;50.734;4.232;2023-12-20T15:57:44;9.10;99.90
25652;DHT22;13508;50.734;4.232;2023-12-20T16:00:47;9.10;99.90
25652;DHT22;13508;50.734;4.232;2023-12-20T16:03:51;9.10;99.90
25652;DHT22;13508;50.734;4.232;2023-12-20T16:06:55;9.10;99.90
25652;DHT22;13508;50.734;4.232;2023-12-20T16:09:58;9.10;99.90
25652;DHT22;13508;50.734;4.232;2023-12-20T16:13:04;9.00;99.90
25652;DHT22;13508;50.734;4.232;2023-12-20T16:16:07;9.00;99.90
25652;DHT22;13508;50.734;4.232;2023-12-20T16:19:13;9.10;99.90
25652;DHT22;13508;50.734;4.232;2023-12-20T16:22:17;9.00;99.90
25652;DHT22;13508;50.734;4.232;2023-12-20T16:25:20;9.10;99.90
25652;DHT22;13508;50.734;4.232;2023-12-20T16:28:24;9.10;99.90
25652;DHT22;13508;50.734;4.232;2023-12-20T16:31:27;9.00;99.90
25652;DHT22;13508;50.734;4.232;2023-12-20T16:34:30;9.10;99.90
25652;DHT22;13508;50.734;4.232;2023-12-20T16:37:34;9.10;99.90
25652;DHT22;13508;50.734;4.232;2023-12-20T16:40:43;9.10;99.90
25652;DHT22;13508;50.734;4.232;2023-12-20T16:43:49;9.20;99.90
25652;DHT22;13508;50.734;4.232;2023-12-20T16:46:52;9.20;99.90
25652;DHT22;13508;50.734;4.232;2023-12-20T16:49:56;9.20;99.90
25652;DHT22;13508;50.734;4.232;2023-12-20T16:53:01;9.20;99.90
25652;DHT22;13508;50.734;4.232;2023-12-20T16:56:05;9.20;99.90
25652;DHT22;13508;50.734;4.232;2023-12-20T16:59:08;9.20;99.90
25652;DHT22;13508;50.734;4.232;2023-12-20T17:02:12;9.10;99.90
25652;DHT22;13508;50.734;4.232;2023-12-20T17:05:15;9.10;99.90
25652;DHT22;13508;50.734;4.232;2023-12-20T17:08:18;9.10;99.90
25652;DHT22;13508;50.734;4.232;2023-12-20T17:11:22;9.10;99.90
25652;DHT22;13508;50.734;4.232;2023-12-20T17:14:25;9.20;99.90
25652;DHT22;13508;50.734;4.232;2023-12-20T17:17:29;9.20;99.90
25652;DHT22;13508;50.734;4.232;2023-12-20T17:20:33;9.20;99.90
25652;DHT22;13508;50.734;4.232;2023-12-20T17:23:37;9.20;99.90
25652;DHT22;13508;50.734;4.232;2023-12-20T17:26:40;9.20;99.90
25652;DHT22;13508;50.734;4.232;2023-12-20T17:29:43;9.20;99.90
25652;DHT22;13508;50.734;4.232;2023-12-20T17:32:47;9.20;99.90
25652;DHT22;13508;50.734;4.232;2023-12-20T17:35:52;9.20;99.90
25652;DHT22;13508;50.734;4.232;2023-12-20T17:38:57;9.30;99.90
25652;DHT22;13508;50.734;4.232;2023-12-20T17:42:03;9.20;99.90
25652;DHT22;13508;50.734;4.232;2023-12-20T17:45:06;9.20;99.90
25652;DHT22;13508;50.734;4.232;2023-12-20T17:48:10;9.20;99.90
25652;DHT22;13508;50.734;4.232;2023-12-20T17:51:13;9.20;99.90
25652;DHT22;13508;50.734;4.232;2023-12-20T17:54:17;9.20;99.90
25652;DHT22;13508;50.734;4.232;2023-12-20T17:57:19;9.20;99.90
25652;DHT22;13508;50.734;4.232;2023-12-20T18:00:33;9.20;99.90
25652;DHT22;13508;50.734;4.232;2023-12-20T18:03:36;9.10;99.90
25652;DHT22;13508;50.734;4.232;2023-12-20T18:06:39;9.20;99.90
25652;DHT22;13508;50.734;4.232;2023-12-20T18:09:43;9.20;99.90
25652;DHT22;13508;50.734;4.232;2023-12-20T18:12:49;9.20;99.90
25652;DHT22;13508;50.734;4.232;2023-12-20T18:15:52;9.20;99.90
25652;DHT22;13508;50.734;4.232;2023-12-20T18:18:56;9.10;99.90
25652;DHT22;13508;50.734;4.232;2023-12-20T18:22:01;9.00;99.90
25652;DHT22;13508;50.734;4.232;2023-12-20T18:25:07;9.00;99.90
25652;DHT22;13508;50.734;4.232;2023-12-20T18:28:10;9.00;99.90
25652;DHT22;13508;50.734;4.232;2023-12-20T18:31:14;9.00;99.90
25652;DHT22;13508;50.734;4.232;2023-12-20T18:34:17;9.00;99.90
25652;DHT22;13508;50.734;4.232;2023-12-20T18:37:21;9.00;99.90
25652;DHT22;13508;50.734;4.232;2023-12-20T18:40:24;8.90;99.90
25652;DHT22;13508;50.734;4.232;2023-12-20T18:43:30;9.00;99.90
25652;DHT22;13508;50.734;4.232;2023-12-20T18:46:33;8.90;99.90
25652;DHT22;13508;50.734;4.232;2023-12-20T18:49:37;9.00;99.90
25652;DHT22;13508;50.734;4.232;2023-12-20T18:52:45;9.00;99.90
25652;DHT22;13508;50.734;4.232;2023-12-20T18:55:49;8.90;99.90
25652;DHT22;13508;50.734;4.232;2023-12-20T18:58:52;8.90;99.90
25652;DHT22;13508;50.734;4.232;2023-12-20T19:01:55;8.90;99.90
25652;DHT22;13508;50.734;4.232;2023-12-20T19:04:59;8.90;99.90
25652;DHT22;13508;50.734;4.232;2023-12-20T19:08:03;8.90;99.90
25652;DHT22;13508;50.734;4.232;2023-12-20T19:11:09;9.00;99.90
25652;DHT22;13508;50.734;4.232;2023-12-20T19:14:15;9.00;99.90
25652;DHT22;13508;50.734;4.232;2023-12-20T19:17:20;9.00;99.90
25652;DHT22;13508;50.734;4.232;2023-12-20T19:20:26;9.00;99.90
25652;DHT22;13508;50.734;4.232;2023-12-20T19:23:29;8.90;99.90
25652;DHT22;13508;50.734;4.232;2023-12-20T19:26:33;9.00;99.90
25652;DHT22;13508;50.734;4.232;2023-12-20T19:29:36;9.10;99.90
25652;DHT22;13508;50.734;4.232;2023-12-20T19:32:39;9.10;99.90
25652;DHT22;13508;50.734;4.232;2023-12-20T19:35:45;9.20;99.90
25652;DHT22;13508;50.734;4.232;2023-12-20T19:38:48;9.20;99.90
25652;DHT22;13508;50.734;4.232;2023-12-20T19:41:52;9.10;99.90
25652;DHT22;13508;50.734;4.232;2023-12-20T19:44:55;9.20;99.90